sensor_id;sensor_type;location;lat;lon;timestamp;P1;durP1;ratioP1;P2;durP2;ratioP2
11893;SDS011;6006;49.696;8.662;2023-04-10T00:02:12;7.50;;;5.97;;
11893;SDS011;6006;49.696;8.662;2023-04-10T00:04:39;7.47;;;5.23;;
11893;SDS011;6006;49.696;8.662;2023-04-10T00:07:07;7.90;;;6.00;;
11893;SDS011;6006;49.696;8.662;2023-04-10T00:09:34;7.50;;;5.77;;
11893;SDS011;6006;49.696;8.662;2023-04-10T00:12:01;7.07;;;5.57;;
11893;SDS011;6006;49.696;8.662;2023-04-10T00:14:28;7.67;;;5.47;;
11893;SDS011;6006;49.696;8.662;2023-04-10T00:16:54;8.47;;;6.20;;
11893;SDS011;6006;49.696;8.662;2023-04-10T00:19:21;10.13;;;6.70;;
11893;SDS011;6006;49.696;8.662;2023-04-10T00:21:48;9.17;;;6.50;;
11893;SDS011;6006;49.696;8.662;2023-04-10T00:24:16;6.93;;;5.33;;
11893;SDS011;6006;49.696;8.662;2023-04-10T00:26:43;7.83;;;5.53;;
11893;SDS011;6006;49.696;8.662;2023-04-10T00:29:10;8.83;;;6.13;;
11893;SDS011;6006;49.696;8.662;2023-04-10T00:31:37;7.27;;;5.30;;
11893;SDS011;6006;49.696;8.662;2023-04-10T00:34:04;7.83;;;5.20;;
11893;SDS011;6006;49.696;8.662;2023-04-10T00:36:31;8.13;;;5.83;;
11893;SDS011;6006;49.696;8.662;2023-04-10T00:38:57;8.93;;;6.43;;
11893;SDS011;6006;49.696;8.662;2023-04-10T00:41:25;7.73;;;5.67;;
11893;SDS011;6006;49.696;8.662;2023-04-10T00:43:54;7.17;;;5.40;;
11893;SDS011;6006;49.696;8.662;2023-04-10T00:46:21;6.90;;;5.43;;
11893;SDS011;6006;49.696;8.662;2023-04-10T00:48:48;6.03;;;4.90;;
11893;SDS011;6006;49.696;8.662;2023-04-10T00:51:16;7.90;;;6.23;;
11893;SDS011;6006;49.696;8.662;2023-04-10T00:53:44;7.60;;;5.63;;
11893;SDS011;6006;49.696;8.662;2023-04-10T00:56:11;8.07;;;5.73;;
11893;SDS011;6006;49.696;8.662;2023-04-10T00:58:40;6.67;;;5.37;;
11893;SDS011;6006;49.696;8.662;2023-04-10T01:01:07;7.90;;;5.57;;
11893;SDS011;6006;49.696;8.662;2023-04-10T01:03:34;7.17;;;5.57;;
11893;SDS011;6006;49.696;8.662;2023-04-10T01:06:04;8.50;;;5.73;;
11893;SDS011;6006;49.696;8.662;2023-04-10T01:08:38;6.40;;;5.47;;
11893;SDS011;6006;49.696;8.662;2023-04-10T01:11:14;7.40;;;5.60;;
11893;SDS011;6006;49.696;8.662;2023-04-10T01:13:52;8.03;;;5.87;;
11893;SDS011;6006;49.696;8.662;2023-04-10T01:16:25;8.83;;;6.07;;
11893;SDS011;6006;49.696;8.662;2023-04-10T01:18:58;8.63;;;5.87;;
11893;SDS011;6006;49.696;8.662;2023-04-10T01:21:30;8.50;;;5.93;;
11893;SDS011;6006;49.696;8.662;2023-04-10T01:27:01;7.17;;;5.63;;
11893;SDS011;6006;49.696;8.662;2023-04-10T01:29:37;8.23;;;6.20;;
11893;SDS011;6006;49.696;8.662;2023-04-10T01:32:09;8.13;;;6.00;;
11893;SDS011;6006;49.696;8.662;2023-04-10T01:34:39;7.43;;;5.63;;
11893;SDS011;6006;49.696;8.662;2023-04-10T01:37:11;7.90;;;5.67;;
11893;SDS011;6006;49.696;8.662;2023-04-10T01:39:41;8.00;;;5.30;;
11893;SDS011;6006;49.696;8.662;2023-04-10T01:42:10;8.13;;;5.90;;
11893;SDS011;6006;49.696;8.662;2023-04-10T01:44:41;8.33;;;5.80;;
11893;SDS011;6006;49.696;8.662;2023-04-10T01:47:11;7.47;;;5.40;;
11893;SDS011;6006;49.696;8.662;2023-04-10T01:49:40;7.53;;;5.87;;
11893;SDS011;6006;49.696;8.662;2023-04-10T01:52:11;6.53;;;5.10;;
11893;SDS011;6006;49.696;8.662;2023-04-10T01:54:40;8.80;;;5.97;;
11893;SDS011;6006;49.696;8.662;2023-04-10T01:57:09;8.27;;;5.77;;
11893;SDS011;6006;49.696;8.662;2023-04-10T01:59:39;8.10;;;5.67;;
11893;SDS011;6006;49.696;8.662;2023-04-10T02:02:07;8.07;;;5.63;;
11893;SDS011;6006;49.696;8.662;2023-04-10T02:04:35;7.00;;;5.77;;
11893;SDS011;6006;49.696;8.662;2023-04-10T02:07:03;10.10;;;6.70;;
11893;SDS011;6006;49.696;8.662;2023-04-10T02:09:44;10.63;;;6.53;;
11893;SDS011;6006;49.696;8.662;2023-04-10T02:12:17;9.43;;;6.47;;
11893;SDS011;6006;49.696;8.662;2023-04-10T02:14:48;9.13;;;6.63;;
11893;SDS011;6006;49.696;8.662;2023-04-10T02:17:18;9.23;;;6.13;;
11893;SDS011;6006;49.696;8.662;2023-04-10T02:19:48;7.53;;;5.90;;
11893;SDS011;6006;49.696;8.662;2023-04-10T02:22:18;6.83;;;5.70;;
11893;SDS011;6006;49.696;8.662;2023-04-10T02:24:46;6.83;;;5.37;;
11893;SDS011;6006;49.696;8.662;2023-04-10T02:27:13;7.43;;;5.70;;
11893;SDS011;6006;49.696;8.662;2023-04-10T02:29:40;6.43;;;5.07;;
11893;SDS011;6006;49.696;8.662;2023-04-10T02:32:07;6.30;;;5.13;;
11893;SDS011;6006;49.696;8.662;2023-04-10T02:34:35;6.57;;;5.43;;
11893;SDS011;6006;49.696;8.662;2023-04-10T02:37:02;6.93;;;5.27;;
11893;SDS011;6006;49.696;8.662;2023-04-10T02:39:29;6.53;;;5.03;;
11893;SDS011;6006;49.696;8.662;2023-04-10T02:41:56;6.03;;;5.30;;
11893;SDS011;6006;49.696;8.662;2023-04-10T02:44:22;7.07;;;5.53;;
11893;SDS011;6006;49.696;8.662;2023-04-10T02:46:50;7.40;;;5.10;;
11893;SDS011;6006;49.696;8.662;2023-04-10T02:49:16;7.97;;;5.53;;
11893;SDS011;6006;49.696;8.662;2023-04-10T02:51:45;6.20;;;5.00;;
11893;SDS011;6006;49.696;8.662;2023-04-10T02:54:12;6.67;;;5.00;;
11893;SDS011;6006;49.696;8.662;2023-04-10T02:56:38;6.73;;;5.67;;
11893;SDS011;6006;49.696;8.662;2023-04-10T02:59:05;6.27;;;5.37;;
11893;SDS011;6006;49.696;8.662;2023-04-10T03:01:32;7.43;;;5.10;;
11893;SDS011;6006;49.696;8.662;2023-04-10T03:03:59;8.13;;;4.93;;
11893;SDS011;6006;49.696;8.662;2023-04-10T03:06:27;9.23;;;6.00;;
11893;SDS011;6006;49.696;8.662;2023-04-10T03:08:56;6.33;;;4.83;;
11893;SDS011;6006;49.696;8.662;2023-04-10T03:11:22;6.57;;;5.10;;
11893;SDS011;6006;49.696;8.662;2023-04-10T03:13:49;7.33;;;5.30;;
11893;SDS011;6006;49.696;8.662;2023-04-10T03:16:16;6.47;;;5.07;;
11893;SDS011;6006;49.696;8.662;2023-04-10T03:18:43;5.97;;;4.97;;
11893;SDS011;6006;49.696;8.662;2023-04-10T03:21:10;5.93;;;5.30;;
11893;SDS011;6006;49.696;8.662;2023-04-10T03:23:37;9.63;;;5.10;;
11893;SDS011;6006;49.696;8.662;2023-04-10T03:26:05;6.80;;;5.20;;
11893;SDS011;6006;49.696;8.662;2023-04-10T03:28:32;8.13;;;5.47;;
11893;SDS011;6006;49.696;8.662;2023-04-10T03:31:00;6.13;;;5.17;;
11893;SDS011;6006;49.696;8.662;2023-04-10T03:33:27;6.73;;;5.40;;
11893;SDS011;6006;49.696;8.662;2023-04-10T03:35:54;5.77;;;4.57;;
11893;SDS011;6006;49.696;8.662;2023-04-10T03:38:21;6.60;;;5.10;;
11893;SDS011;6006;49.696;8.662;2023-04-10T03:40:48;6.70;;;5.30;;
11893;SDS011;6006;49.696;8.662;2023-04-10T03:43:16;6.27;;;5.27;;
11893;SDS011;6006;49.696;8.662;2023-04-10T03:45:43;7.70;;;5.40;;
11893;SDS011;6006;49.696;8.662;2023-04-10T03:48:11;6.87;;;5.43;;
11893;SDS011;6006;49.696;8.662;2023-04-10T03:50:38;6.83;;;5.27;;
11893;SDS011;6006;49.696;8.662;2023-04-10T03:53:05;7.17;;;5.33;;
11893;SDS011;6006;49.696;8.662;2023-04-10T03:55:31;7.70;;;5.10;;
11893;SDS011;6006;49.696;8.662;2023-04-10T03:57:58;7.70;;;5.67;;
11893;SDS011;6006;49.696;8.662;2023-04-10T04:00:26;8.33;;;6.13;;
11893;SDS011;6006;49.696;8.662;2023-04-10T04:02:53;7.87;;;5.80;;
11893;SDS011;6006;49.696;8.662;2023-04-10T04:05:20;6.80;;;5.40;;
11893;SDS011;6006;49.696;8.662;2023-04-10T04:07:48;8.90;;;5.47;;
11893;SDS011;6006;49.696;8.662;2023-04-10T04:10:14;8.33;;;5.87;;
11893;SDS011;6006;49.696;8.662;2023-04-10T04:12:41;7.97;;;5.70;;
11893;SDS011;6006;49.696;8.662;2023-04-10T04:15:08;7.37;;;5.37;;
11893;SDS011;6006;49.696;8.662;2023-04-10T04:17:37;7.00;;;5.30;;
11893;SDS011;6006;49.696;8.662;2023-04-10T04:20:05;7.57;;;5.87;;
11893;SDS011;6006;49.696;8.662;2023-04-10T04:22:32;6.77;;;5.00;;
11893;SDS011;6006;49.696;8.662;2023-04-10T04:24:59;7.47;;;5.60;;
11893;SDS011;6006;49.696;8.662;2023-04-10T04:27:26;8.03;;;5.37;;
11893;SDS011;6006;49.696;8.662;2023-04-10T04:29:53;7.37;;;5.47;;
11893;SDS011;6006;49.696;8.662;2023-04-10T04:32:19;8.37;;;5.63;;
11893;SDS011;6006;49.696;8.662;2023-04-10T04:34:47;7.40;;;5.80;;
11893;SDS011;6006;49.696;8.662;2023-04-10T04:37:14;7.20;;;5.70;;
11893;SDS011;6006;49.696;8.662;2023-04-10T04:39:41;8.77;;;6.37;;
11893;SDS011;6006;49.696;8.662;2023-04-10T04:42:08;7.10;;;5.83;;
11893;SDS011;6006;49.696;8.662;2023-04-10T04:44:35;11.07;;;6.80;;
11893;SDS011;6006;49.696;8.662;2023-04-10T04:47:02;8.23;;;5.80;;
11893;SDS011;6006;49.696;8.662;2023-04-10T04:49:28;10.10;;;6.67;;
11893;SDS011;6006;49.696;8.662;2023-04-10T04:51:57;7.57;;;5.67;;
11893;SDS011;6006;49.696;8.662;2023-04-10T04:54:23;8.10;;;6.10;;
11893;SDS011;6006;49.696;8.662;2023-04-10T04:56:50;8.63;;;6.23;;
11893;SDS011;6006;49.696;8.662;2023-04-10T04:59:17;9.77;;;5.17;;
11893;SDS011;6006;49.696;8.662;2023-04-10T05:01:44;6.07;;;5.03;;
11893;SDS011;6006;49.696;8.662;2023-04-10T05:04:10;9.17;;;5.70;;
11893;SDS011;6006;49.696;8.662;2023-04-10T05:06:37;8.33;;;5.53;;
11893;SDS011;6006;49.696;8.662;2023-04-10T05:09:05;7.43;;;5.33;;
11893;SDS011;6006;49.696;8.662;2023-04-10T05:11:32;8.73;;;5.60;;
11893;SDS011;6006;49.696;8.662;2023-04-10T05:13:59;8.43;;;5.80;;
11893;SDS011;6006;49.696;8.662;2023-04-10T05:16:26;7.37;;;5.20;;
11893;SDS011;6006;49.696;8.662;2023-04-10T05:18:53;6.40;;;4.80;;
11893;SDS011;6006;49.696;8.662;2023-04-10T05:21:20;6.63;;;5.30;;
11893;SDS011;6006;49.696;8.662;2023-04-10T05:23:47;7.47;;;4.87;;
11893;SDS011;6006;49.696;8.662;2023-04-10T05:26:15;6.03;;;4.80;;
11893;SDS011;6006;49.696;8.662;2023-04-10T05:28:42;5.90;;;4.93;;
11893;SDS011;6006;49.696;8.662;2023-04-10T05:31:08;6.17;;;4.90;;
11893;SDS011;6006;49.696;8.662;2023-04-10T05:33:35;7.03;;;5.00;;
11893;SDS011;6006;49.696;8.662;2023-04-10T05:36:02;6.20;;;4.40;;
11893;SDS011;6006;49.696;8.662;2023-04-10T05:38:29;6.80;;;4.60;;
11893;SDS011;6006;49.696;8.662;2023-04-10T05:40:56;5.37;;;4.70;;
11893;SDS011;6006;49.696;8.662;2023-04-10T05:43:24;7.23;;;5.33;;
11893;SDS011;6006;49.696;8.662;2023-04-10T05:45:51;5.33;;;4.53;;
11893;SDS011;6006;49.696;8.662;2023-04-10T05:48:18;4.10;;;3.70;;
11893;SDS011;6006;49.696;8.662;2023-04-10T05:50:45;5.93;;;4.70;;
11893;SDS011;6006;49.696;8.662;2023-04-10T05:53:12;6.13;;;4.47;;
11893;SDS011;6006;49.696;8.662;2023-04-10T05:55:39;5.97;;;4.67;;
11893;SDS011;6006;49.696;8.662;2023-04-10T05:58:06;5.43;;;4.37;;
11893;SDS011;6006;49.696;8.662;2023-04-10T06:00:34;7.23;;;4.57;;
11893;SDS011;6006;49.696;8.662;2023-04-10T06:03:01;4.70;;;4.17;;
11893;SDS011;6006;49.696;8.662;2023-04-10T06:05:28;4.77;;;3.90;;
11893;SDS011;6006;49.696;8.662;2023-04-10T06:07:55;4.37;;;3.37;;
11893;SDS011;6006;49.696;8.662;2023-04-10T06:10:22;4.73;;;4.10;;
11893;SDS011;6006;49.696;8.662;2023-04-10T06:12:49;6.27;;;4.13;;
11893;SDS011;6006;49.696;8.662;2023-04-10T06:15:16;4.50;;;3.63;;
11893;SDS011;6006;49.696;8.662;2023-04-10T06:17:44;5.87;;;4.20;;
11893;SDS011;6006;49.696;8.662;2023-04-10T06:20:11;4.20;;;3.80;;
11893;SDS011;6006;49.696;8.662;2023-04-10T06:22:38;4.87;;;4.37;;
11893;SDS011;6006;49.696;8.662;2023-04-10T06:25:05;4.30;;;3.70;;
11893;SDS011;6006;49.696;8.662;2023-04-10T06:27:32;4.47;;;4.07;;
11893;SDS011;6006;49.696;8.662;2023-04-10T06:30:00;4.73;;;4.27;;
11893;SDS011;6006;49.696;8.662;2023-04-10T06:32:27;4.83;;;4.33;;
11893;SDS011;6006;49.696;8.662;2023-04-10T06:34:55;3.87;;;3.47;;
11893;SDS011;6006;49.696;8.662;2023-04-10T06:37:26;4.23;;;3.83;;
11893;SDS011;6006;49.696;8.662;2023-04-10T06:40:00;3.93;;;3.53;;
11893;SDS011;6006;49.696;8.662;2023-04-10T06:42:27;4.60;;;4.20;;
11893;SDS011;6006;49.696;8.662;2023-04-10T06:44:55;5.17;;;4.23;;
11893;SDS011;6006;49.696;8.662;2023-04-10T06:47:22;4.47;;;4.07;;
11893;SDS011;6006;49.696;8.662;2023-04-10T06:49:49;4.23;;;3.83;;
11893;SDS011;6006;49.696;8.662;2023-04-10T06:52:17;4.43;;;4.00;;
11893;SDS011;6006;49.696;8.662;2023-04-10T06:54:44;4.60;;;4.07;;
11893;SDS011;6006;49.696;8.662;2023-04-10T06:57:11;5.53;;;4.53;;
11893;SDS011;6006;49.696;8.662;2023-04-10T06:59:38;4.33;;;3.93;;
11893;SDS011;6006;49.696;8.662;2023-04-10T07:02:05;4.90;;;4.40;;
11893;SDS011;6006;49.696;8.662;2023-04-10T07:04:32;4.33;;;3.90;;
11893;SDS011;6006;49.696;8.662;2023-04-10T07:07:00;5.03;;;4.30;;
11893;SDS011;6006;49.696;8.662;2023-04-10T07:09:28;5.97;;;4.07;;
11893;SDS011;6006;49.696;8.662;2023-04-10T07:11:55;4.20;;;3.80;;
11893;SDS011;6006;49.696;8.662;2023-04-10T07:14:22;4.47;;;4.07;;
11893;SDS011;6006;49.696;8.662;2023-04-10T07:16:49;3.93;;;3.63;;
11893;SDS011;6006;49.696;8.662;2023-04-10T07:19:18;3.27;;;3.03;;
11893;SDS011;6006;49.696;8.662;2023-04-10T07:21:44;4.20;;;3.80;;
11893;SDS011;6006;49.696;8.662;2023-04-10T07:24:14;4.43;;;3.60;;
11893;SDS011;6006;49.696;8.662;2023-04-10T07:26:42;4.57;;;4.18;;
11893;SDS011;6006;49.696;8.662;2023-04-10T07:29:09;4.07;;;3.77;;
11893;SDS011;6006;49.696;8.662;2023-04-10T07:31:36;4.33;;;3.93;;
11893;SDS011;6006;49.696;8.662;2023-04-10T07:34:03;3.80;;;3.50;;
11893;SDS011;6006;49.696;8.662;2023-04-10T07:36:30;5.87;;;4.20;;
11893;SDS011;6006;49.696;8.662;2023-04-10T07:38:57;3.37;;;3.07;;
11893;SDS011;6006;49.696;8.662;2023-04-10T07:41:24;4.10;;;3.80;;
11893;SDS011;6006;49.696;8.662;2023-04-10T07:43:52;3.83;;;3.53;;
11893;SDS011;6006;49.696;8.662;2023-04-10T07:46:19;3.70;;;3.40;;
11893;SDS011;6006;49.696;8.662;2023-04-10T07:48:46;4.13;;;3.72;;
11893;SDS011;6006;49.696;8.662;2023-04-10T07:51:13;3.38;;;3.17;;
11893;SDS011;6006;49.696;8.662;2023-04-10T07:53:40;3.80;;;3.17;;
11893;SDS011;6006;49.696;8.662;2023-04-10T07:56:13;3.75;;;3.42;;
11893;SDS011;6006;49.696;8.662;2023-04-10T07:58:41;3.60;;;3.30;;
11893;SDS011;6006;49.696;8.662;2023-04-10T08:01:09;3.50;;;3.20;;
11893;SDS011;6006;49.696;8.662;2023-04-10T08:03:36;3.45;;;3.15;;
11893;SDS011;6006;49.696;8.662;2023-04-10T08:06:04;3.65;;;3.35;;
11893;SDS011;6006;49.696;8.662;2023-04-10T08:08:33;3.70;;;3.40;;
11893;SDS011;6006;49.696;8.662;2023-04-10T08:11:02;3.83;;;3.08;;
11893;SDS011;6006;49.696;8.662;2023-04-10T08:13:29;3.30;;;3.00;;
11893;SDS011;6006;49.696;8.662;2023-04-10T08:15:56;3.33;;;3.03;;
11893;SDS011;6006;49.696;8.662;2023-04-10T08:18:24;4.28;;;3.53;;
11893;SDS011;6006;49.696;8.662;2023-04-10T08:20:51;3.72;;;3.42;;
11893;SDS011;6006;49.696;8.662;2023-04-10T08:23:18;3.30;;;3.10;;
11893;SDS011;6006;49.696;8.662;2023-04-10T08:25:45;3.20;;;2.90;;
11893;SDS011;6006;49.696;8.662;2023-04-10T08:28:12;3.40;;;3.15;;
11893;SDS011;6006;49.696;8.662;2023-04-10T08:30:38;3.40;;;3.10;;
11893;SDS011;6006;49.696;8.662;2023-04-10T08:33:05;2.92;;;2.72;;
11893;SDS011;6006;49.696;8.662;2023-04-10T08:35:33;3.22;;;3.03;;
11893;SDS011;6006;49.696;8.662;2023-04-10T08:38:00;3.10;;;2.88;;
11893;SDS011;6006;49.696;8.662;2023-04-10T08:40:27;3.10;;;2.80;;
11893;SDS011;6006;49.696;8.662;2023-04-10T08:42:54;2.78;;;2.58;;
11893;SDS011;6006;49.696;8.662;2023-04-10T08:45:21;3.08;;;2.88;;
11893;SDS011;6006;49.696;8.662;2023-04-10T08:47:48;3.22;;;2.95;;
11893;SDS011;6006;49.696;8.662;2023-04-10T08:50:17;3.35;;;3.05;;
11893;SDS011;6006;49.696;8.662;2023-04-10T08:52:47;2.72;;;2.53;;
11893;SDS011;6006;49.696;8.662;2023-04-10T08:55:17;2.60;;;2.40;;
11893;SDS011;6006;49.696;8.662;2023-04-10T08:57:45;3.13;;;2.90;;
11893;SDS011;6006;49.696;8.662;2023-04-10T09:00:13;2.72;;;2.53;;
11893;SDS011;6006;49.696;8.662;2023-04-10T09:02:40;2.58;;;2.38;;
11893;SDS011;6006;49.696;8.662;2023-04-10T09:05:09;2.70;;;2.50;;
11893;SDS011;6006;49.696;8.662;2023-04-10T09:07:38;2.60;;;2.40;;
11893;SDS011;6006;49.696;8.662;2023-04-10T09:10:06;2.72;;;2.53;;
11893;SDS011;6006;49.696;8.662;2023-04-10T09:12:43;2.50;;;2.30;;
11893;SDS011;6006;49.696;8.662;2023-04-10T09:15:11;2.70;;;2.50;;
11893;SDS011;6006;49.696;8.662;2023-04-10T09:17:52;2.65;;;2.55;;
11893;SDS011;6006;49.696;8.662;2023-04-10T09:20:21;2.50;;;2.20;;
11893;SDS011;6006;49.696;8.662;2023-04-10T09:22:49;2.70;;;2.50;;
11893;SDS011;6006;49.696;8.662;2023-04-10T09:25:33;2.28;;;2.17;;
11893;SDS011;6006;49.696;8.662;2023-04-10T09:28:03;2.55;;;2.35;;
11893;SDS011;6006;49.696;8.662;2023-04-10T09:30:32;2.50;;;2.30;;
11893;SDS011;6006;49.696;8.662;2023-04-10T09:33:00;2.03;;;1.92;;
11893;SDS011;6006;49.696;8.662;2023-04-10T09:35:34;2.40;;;2.22;;
11893;SDS011;6006;49.696;8.662;2023-04-10T09:38:12;2.00;;;1.90;;
11893;SDS011;6006;49.696;8.662;2023-04-10T09:40:42;3.10;;;1.85;;
11893;SDS011;6006;49.696;8.662;2023-04-10T09:43:16;2.13;;;1.92;;
11893;SDS011;6006;49.696;8.662;2023-04-10T09:45:47;2.50;;;2.30;;
11893;SDS011;6006;49.696;8.662;2023-04-10T09:48:16;2.30;;;1.92;;
11893;SDS011;6006;49.696;8.662;2023-04-10T09:50:43;2.25;;;2.13;;
11893;SDS011;6006;49.696;8.662;2023-04-10T09:53:11;1.90;;;1.80;;
11893;SDS011;6006;49.696;8.662;2023-04-10T09:55:39;2.10;;;1.90;;
11893;SDS011;6006;49.696;8.662;2023-04-10T09:58:08;2.03;;;1.92;;
11893;SDS011;6006;49.696;8.662;2023-04-10T10:00:37;2.03;;;1.92;;
11893;SDS011;6006;49.696;8.662;2023-04-10T10:03:06;2.05;;;1.95;;
11893;SDS011;6006;49.696;8.662;2023-04-10T10:05:36;2.13;;;1.90;;
11893;SDS011;6006;49.696;8.662;2023-04-10T10:08:05;2.67;;;2.08;;
11893;SDS011;6006;49.696;8.662;2023-04-10T10:10:33;2.13;;;1.92;;
11893;SDS011;6006;49.696;8.662;2023-04-10T10:13:05;2.30;;;2.10;;
11893;SDS011;6006;49.696;8.662;2023-04-10T10:15:37;2.22;;;2.08;;
11893;SDS011;6006;49.696;8.662;2023-04-10T10:18:08;2.15;;;1.95;;
11893;SDS011;6006;49.696;8.662;2023-04-10T10:20:43;1.90;;;1.80;;
11893;SDS011;6006;49.696;8.662;2023-04-10T10:23:11;2.15;;;2.05;;
11893;SDS011;6006;49.696;8.662;2023-04-10T10:25:41;2.05;;;1.95;;
11893;SDS011;6006;49.696;8.662;2023-04-10T10:28:11;2.30;;;2.10;;
11893;SDS011;6006;49.696;8.662;2023-04-10T10:30:39;2.22;;;2.03;;
11893;SDS011;6006;49.696;8.662;2023-04-10T10:33:07;1.85;;;1.75;;
11893;SDS011;6006;49.696;8.662;2023-04-10T10:35:36;2.45;;;2.20;;
11893;SDS011;6006;49.696;8.662;2023-04-10T10:38:03;2.15;;;2.00;;
11893;SDS011;6006;49.696;8.662;2023-04-10T10:40:31;2.42;;;2.28;;
11893;SDS011;6006;49.696;8.662;2023-04-10T10:43:09;2.13;;;2.03;;
11893;SDS011;6006;49.696;8.662;2023-04-10T10:45:45;2.10;;;2.00;;
11893;SDS011;6006;49.696;8.662;2023-04-10T10:48:17;2.47;;;2.28;;
11893;SDS011;6006;49.696;8.662;2023-04-10T10:50:50;2.10;;;2.00;;
11893;SDS011;6006;49.696;8.662;2023-04-10T10:53:30;2.05;;;1.95;;
11893;SDS011;6006;49.696;8.662;2023-04-10T10:55:58;1.90;;;1.80;;
11893;SDS011;6006;49.696;8.662;2023-04-10T10:58:45;2.35;;;2.10;;
11893;SDS011;6006;49.696;8.662;2023-04-10T11:01:13;2.22;;;1.92;;
11893;SDS011;6006;49.696;8.662;2023-04-10T11:03:40;2.38;;;2.20;;
11893;SDS011;6006;49.696;8.662;2023-04-10T11:06:09;2.22;;;2.13;;
11893;SDS011;6006;49.696;8.662;2023-04-10T11:08:44;1.92;;;1.83;;
11893;SDS011;6006;49.696;8.662;2023-04-10T11:11:13;2.22;;;2.13;;
11893;SDS011;6006;49.696;8.662;2023-04-10T11:13:41;2.00;;;1.90;;
11893;SDS011;6006;49.696;8.662;2023-04-10T11:19:08;2.40;;;2.20;;
11893;SDS011;6006;49.696;8.662;2023-04-10T11:21:40;1.90;;;1.80;;
11893;SDS011;6006;49.696;8.662;2023-04-10T11:24:29;2.70;;;2.50;;
11893;SDS011;6006;49.696;8.662;2023-04-10T11:27:42;2.17;;;2.08;;
11893;SDS011;6006;49.696;8.662;2023-04-10T11:30:26;2.20;;;2.00;;
11893;SDS011;6006;49.696;8.662;2023-04-10T11:32:57;2.85;;;1.95;;
11893;SDS011;6006;49.696;8.662;2023-04-10T11:35:25;2.22;;;2.10;;
11893;SDS011;6006;49.696;8.662;2023-04-10T11:40:51;2.75;;;2.28;;
11893;SDS011;6006;49.696;8.662;2023-04-10T11:43:23;2.17;;;2.08;;
11893;SDS011;6006;49.696;8.662;2023-04-10T11:45:50;2.53;;;2.33;;
11893;SDS011;6006;49.696;8.662;2023-04-10T11:48:28;1.88;;;1.77;;
11893;SDS011;6006;49.696;8.662;2023-04-10T11:50:55;1.75;;;1.65;;
11893;SDS011;6006;49.696;8.662;2023-04-10T11:53:25;1.75;;;1.65;;
11893;SDS011;6006;49.696;8.662;2023-04-10T11:55:54;1.92;;;1.83;;
11893;SDS011;6006;49.696;8.662;2023-04-10T11:58:22;2.17;;;1.98;;
11893;SDS011;6006;49.696;8.662;2023-04-10T12:00:56;1.80;;;1.70;;
11893;SDS011;6006;49.696;8.662;2023-04-10T12:03:34;2.00;;;1.90;;
11893;SDS011;6006;49.696;8.662;2023-04-10T12:06:02;1.88;;;1.77;;
11893;SDS011;6006;49.696;8.662;2023-04-10T12:08:31;1.80;;;1.70;;
11893;SDS011;6006;49.696;8.662;2023-04-10T12:10:59;2.28;;;2.10;;
11893;SDS011;6006;49.696;8.662;2023-04-10T12:13:26;2.05;;;1.85;;
11893;SDS011;6006;49.696;8.662;2023-04-10T12:15:56;3.25;;;3.05;;
11893;SDS011;6006;49.696;8.662;2023-04-10T12:18:25;2.45;;;2.25;;
11893;SDS011;6006;49.696;8.662;2023-04-10T12:20:52;2.45;;;2.25;;
11893;SDS011;6006;49.696;8.662;2023-04-10T12:23:21;1.85;;;1.75;;
11893;SDS011;6006;49.696;8.662;2023-04-10T12:25:50;2.13;;;1.92;;
11893;SDS011;6006;49.696;8.662;2023-04-10T12:28:18;2.08;;;1.98;;
11893;SDS011;6006;49.696;8.662;2023-04-10T12:30:46;1.80;;;1.70;;
11893;SDS011;6006;49.696;8.662;2023-04-10T12:33:20;1.83;;;1.73;;
11893;SDS011;6006;49.696;8.662;2023-04-10T12:35:48;2.13;;;2.03;;
11893;SDS011;6006;49.696;8.662;2023-04-10T12:41:05;1.90;;;1.80;;
11893;SDS011;6006;49.696;8.662;2023-04-10T12:43:34;1.80;;;1.70;;
11893;SDS011;6006;49.696;8.662;2023-04-10T12:46:01;1.83;;;1.73;;
11893;SDS011;6006;49.696;8.662;2023-04-10T12:48:29;1.77;;;1.67;;
11893;SDS011;6006;49.696;8.662;2023-04-10T12:50:56;1.75;;;1.52;;
11893;SDS011;6006;49.696;8.662;2023-04-10T12:53:24;1.75;;;1.63;;
11893;SDS011;6006;49.696;8.662;2023-04-10T12:55:58;1.85;;;1.70;;
11893;SDS011;6006;49.696;8.662;2023-04-10T12:58:27;1.50;;;1.40;;
11893;SDS011;6006;49.696;8.662;2023-04-10T13:00:56;1.80;;;1.50;;
11893;SDS011;6006;49.696;8.662;2023-04-10T13:03:24;1.60;;;1.50;;
11893;SDS011;6006;49.696;8.662;2023-04-10T13:05:51;1.83;;;1.73;;
11893;SDS011;6006;49.696;8.662;2023-04-10T13:08:18;1.63;;;1.52;;
11893;SDS011;6006;49.696;8.662;2023-04-10T13:10:46;2.17;;;1.98;;
11893;SDS011;6006;49.696;8.662;2023-04-10T13:13:13;1.77;;;1.67;;
11893;SDS011;6006;49.696;8.662;2023-04-10T13:15:41;2.10;;;1.85;;
11893;SDS011;6006;49.696;8.662;2023-04-10T13:18:09;3.30;;;1.77;;
11893;SDS011;6006;49.696;8.662;2023-04-10T13:20:36;3.72;;;1.90;;
11893;SDS011;6006;49.696;8.662;2023-04-10T13:23:04;1.70;;;1.60;;
11893;SDS011;6006;49.696;8.662;2023-04-10T13:25:31;1.73;;;1.63;;
11893;SDS011;6006;49.696;8.662;2023-04-10T13:27:59;1.92;;;1.83;;
11893;SDS011;6006;49.696;8.662;2023-04-10T13:30:26;2.03;;;1.92;;
11893;SDS011;6006;49.696;8.662;2023-04-10T13:32:55;2.15;;;1.83;;
11893;SDS011;6006;49.696;8.662;2023-04-10T13:35:22;2.03;;;1.90;;
11893;SDS011;6006;49.696;8.662;2023-04-10T13:37:48;2.10;;;1.92;;
11893;SDS011;6006;49.696;8.662;2023-04-10T13:40:18;2.45;;;2.25;;
11893;SDS011;6006;49.696;8.662;2023-04-10T13:42:45;2.50;;;1.95;;
11893;SDS011;6006;49.696;8.662;2023-04-10T13:45:12;2.03;;;1.92;;
11893;SDS011;6006;49.696;8.662;2023-04-10T13:47:39;1.83;;;1.73;;
11893;SDS011;6006;49.696;8.662;2023-04-10T13:50:08;1.67;;;1.58;;
11893;SDS011;6006;49.696;8.662;2023-04-10T13:52:35;1.85;;;1.60;;
11893;SDS011;6006;49.696;8.662;2023-04-10T13:55:02;1.40;;;1.30;;
11893;SDS011;6006;49.696;8.662;2023-04-10T13:57:30;1.50;;;1.40;;
11893;SDS011;6006;49.696;8.662;2023-04-10T13:59:58;1.70;;;1.60;;
11893;SDS011;6006;49.696;8.662;2023-04-10T14:02:25;1.67;;;1.30;;
11893;SDS011;6006;49.696;8.662;2023-04-10T14:04:51;1.52;;;1.42;;
11893;SDS011;6006;49.696;8.662;2023-04-10T14:07:20;1.55;;;1.45;;
11893;SDS011;6006;49.696;8.662;2023-04-10T14:09:46;1.48;;;1.25;;
11893;SDS011;6006;49.696;8.662;2023-04-10T14:12:13;1.70;;;1.60;;
11893;SDS011;6006;49.696;8.662;2023-04-10T14:14:43;1.30;;;1.30;;
11893;SDS011;6006;49.696;8.662;2023-04-10T14:17:10;1.50;;;1.40;;
11893;SDS011;6006;49.696;8.662;2023-04-10T14:19:37;1.33;;;1.33;;
11893;SDS011;6006;49.696;8.662;2023-04-10T14:22:04;1.50;;;1.40;;
11893;SDS011;6006;49.696;8.662;2023-04-10T14:24:32;1.65;;;1.50;;
11893;SDS011;6006;49.696;8.662;2023-04-10T14:26:59;1.98;;;1.88;;
11893;SDS011;6006;49.696;8.662;2023-04-10T14:29:26;1.40;;;1.30;;
11893;SDS011;6006;49.696;8.662;2023-04-10T14:31:53;1.50;;;1.40;;
11893;SDS011;6006;49.696;8.662;2023-04-10T14:34:20;1.60;;;1.50;;
11893;SDS011;6006;49.696;8.662;2023-04-10T14:36:47;1.42;;;1.33;;
11893;SDS011;6006;49.696;8.662;2023-04-10T14:39:14;1.50;;;1.40;;
11893;SDS011;6006;49.696;8.662;2023-04-10T14:41:42;1.23;;;1.23;;
11893;SDS011;6006;49.696;8.662;2023-04-10T14:44:09;1.55;;;1.45;;
11893;SDS011;6006;49.696;8.662;2023-04-10T14:46:36;1.60;;;1.50;;
11893;SDS011;6006;49.696;8.662;2023-04-10T14:49:02;1.52;;;1.42;;
11893;SDS011;6006;49.696;8.662;2023-04-10T14:51:29;1.58;;;1.48;;
11893;SDS011;6006;49.696;8.662;2023-04-10T14:53:57;1.65;;;1.42;;
11893;SDS011;6006;49.696;8.662;2023-04-10T14:56:24;1.50;;;1.40;;
11893;SDS011;6006;49.696;8.662;2023-04-10T14:58:52;2.20;;;1.50;;
11893;SDS011;6006;49.696;8.662;2023-04-10T15:01:19;1.50;;;1.40;;
11893;SDS011;6006;49.696;8.662;2023-04-10T15:03:46;1.45;;;1.35;;
11893;SDS011;6006;49.696;8.662;2023-04-10T15:06:13;1.70;;;1.60;;
11893;SDS011;6006;49.696;8.662;2023-04-10T15:08:40;1.60;;;1.50;;
11893;SDS011;6006;49.696;8.662;2023-04-10T15:11:07;1.50;;;1.40;;
11893;SDS011;6006;49.696;8.662;2023-04-10T15:13:34;1.45;;;1.13;;
11893;SDS011;6006;49.696;8.662;2023-04-10T15:16:03;3.05;;;1.67;;
11893;SDS011;6006;49.696;8.662;2023-04-10T15:18:32;1.42;;;1.33;;
11893;SDS011;6006;49.696;8.662;2023-04-10T15:20:58;1.58;;;1.48;;